sensor_id;sensor_type;location;lat;lon;timestamp;P1;durP1;ratioP1;P2;durP2;ratioP2
78931;SDS011;68331;53.362;55.932;2023-04-06T00:02:02;17.60;;;5.18;;
78931;SDS011;68331;53.362;55.932;2023-04-06T00:04:27;19.25;;;5.07;;
78931;SDS011;68331;53.362;55.932;2023-04-06T00:06:53;12.55;;;4.50;;
78931;SDS011;68331;53.362;55.932;2023-04-06T00:09:19;16.25;;;4.75;;
78931;SDS011;68331;53.362;55.932;2023-04-06T00:11:45;15.98;;;5.10;;
78931;SDS011;68331;53.362;55.932;2023-04-06T00:14:11;14.30;;;4.78;;
78931;SDS011;68331;53.362;55.932;2023-04-06T00:16:37;19.35;;;4.95;;
78931;SDS011;68331;53.362;55.932;2023-04-06T00:19:03;12.88;;;4.95;;
78931;SDS011;68331;53.362;55.932;2023-04-06T00:21:29;13.90;;;5.20;;
78931;SDS011;68331;53.362;55.932;2023-04-06T00:23:56;14.15;;;5.30;;
78931;SDS011;68331;53.362;55.932;2023-04-06T00:26:22;16.50;;;4.53;;
78931;SDS011;68331;53.362;55.932;2023-04-06T00:28:49;13.35;;;4.80;;
78931;SDS011;68331;53.362;55.932;2023-04-06T00:31:17;18.50;;;7.10;;
78931;SDS011;68331;53.362;55.932;2023-04-06T00:33:43;30.20;;;5.88;;
78931;SDS011;68331;53.362;55.932;2023-04-06T00:36:09;18.15;;;5.00;;
78931;SDS011;68331;53.362;55.932;2023-04-06T00:38:35;13.88;;;6.70;;
78931;SDS011;68331;53.362;55.932;2023-04-06T00:41:01;13.10;;;4.43;;
78931;SDS011;68331;53.362;55.932;2023-04-06T00:43:29;12.13;;;4.60;;
78931;SDS011;68331;53.362;55.932;2023-04-06T00:45:55;18.58;;;4.70;;
78931;SDS011;68331;53.362;55.932;2023-04-06T00:48:21;14.20;;;4.60;;
78931;SDS011;68331;53.362;55.932;2023-04-06T00:50:47;12.10;;;4.18;;
78931;SDS011;68331;53.362;55.932;2023-04-06T00:53:13;13.75;;;4.47;;
78931;SDS011;68331;53.362;55.932;2023-04-06T00:55:40;11.82;;;4.38;;
78931;SDS011;68331;53.362;55.932;2023-04-06T00:58:06;14.13;;;4.63;;
78931;SDS011;68331;53.362;55.932;2023-04-06T01:00:43;20.08;;;4.38;;
78931;SDS011;68331;53.362;55.932;2023-04-06T01:03:14;20.27;;;4.50;;
78931;SDS011;68331;53.362;55.932;2023-04-06T01:05:42;13.48;;;5.55;;
78931;SDS011;68331;53.362;55.932;2023-04-06T01:08:17;12.85;;;4.40;;
78931;SDS011;68331;53.362;55.932;2023-04-06T01:10:45;16.90;;;5.18;;
78931;SDS011;68331;53.362;55.932;2023-04-06T01:13:23;19.08;;;4.93;;
78931;SDS011;68331;53.362;55.932;2023-04-06T01:15:53;23.48;;;5.55;;
78931;SDS011;68331;53.362;55.932;2023-04-06T01:18:39;10.77;;;4.00;;
78931;SDS011;68331;53.362;55.932;2023-04-06T01:21:16;15.43;;;5.07;;
78931;SDS011;68331;53.362;55.932;2023-04-06T01:24:20;12.48;;;4.25;;
78931;SDS011;68331;53.362;55.932;2023-04-06T01:26:59;14.65;;;5.35;;
78931;SDS011;68331;53.362;55.932;2023-04-06T01:29:32;12.18;;;4.97;;
78931;SDS011;68331;53.362;55.932;2023-04-06T01:32:00;16.00;;;4.60;;
78931;SDS011;68331;53.362;55.932;2023-04-06T01:34:28;28.33;;;6.35;;
78931;SDS011;68331;53.362;55.932;2023-04-06T01:36:57;19.70;;;5.57;;
78931;SDS011;68331;53.362;55.932;2023-04-06T01:39:27;26.30;;;5.30;;
78931;SDS011;68331;53.362;55.932;2023-04-06T01:41:53;34.58;;;7.07;;
78931;SDS011;68331;53.362;55.932;2023-04-06T01:44:20;19.33;;;6.40;;
78931;SDS011;68331;53.362;55.932;2023-04-06T01:46:53;13.88;;;4.75;;
78931;SDS011;68331;53.362;55.932;2023-04-06T01:49:19;14.32;;;5.82;;
78931;SDS011;68331;53.362;55.932;2023-04-06T01:51:50;20.35;;;4.95;;
78931;SDS011;68331;53.362;55.932;2023-04-06T01:54:16;22.00;;;6.53;;
78931;SDS011;68331;53.362;55.932;2023-04-06T01:56:53;14.88;;;5.00;;
78931;SDS011;68331;53.362;55.932;2023-04-06T01:59:30;18.70;;;5.63;;
78931;SDS011;68331;53.362;55.932;2023-04-06T02:01:58;24.50;;;4.90;;
78931;SDS011;68331;53.362;55.932;2023-04-06T02:04:25;13.15;;;5.40;;
78931;SDS011;68331;53.362;55.932;2023-04-06T02:06:59;23.80;;;5.82;;
78931;SDS011;68331;53.362;55.932;2023-04-06T02:09:27;21.73;;;7.15;;
78931;SDS011;68331;53.362;55.932;2023-04-06T02:11:53;22.92;;;6.20;;
78931;SDS011;68331;53.362;55.932;2023-04-06T02:14:19;20.50;;;5.93;;
78931;SDS011;68331;53.362;55.932;2023-04-06T02:16:50;40.85;;;8.75;;
78931;SDS011;68331;53.362;55.932;2023-04-06T02:19:16;35.97;;;8.75;;
78931;SDS011;68331;53.362;55.932;2023-04-06T02:21:42;36.83;;;8.63;;
78931;SDS011;68331;53.362;55.932;2023-04-06T02:24:08;35.50;;;10.43;;
78931;SDS011;68331;53.362;55.932;2023-04-06T02:26:34;30.27;;;7.50;;
78931;SDS011;68331;53.362;55.932;2023-04-06T02:29:00;45.83;;;8.55;;
78931;SDS011;68331;53.362;55.932;2023-04-06T02:31:27;37.30;;;9.20;;
78931;SDS011;68331;53.362;55.932;2023-04-06T02:33:53;36.10;;;8.75;;
78931;SDS011;68331;53.362;55.932;2023-04-06T02:36:20;39.08;;;8.27;;
78931;SDS011;68331;53.362;55.932;2023-04-06T02:38:46;34.20;;;7.72;;
78931;SDS011;68331;53.362;55.932;2023-04-06T02:41:12;38.60;;;9.88;;
78931;SDS011;68331;53.362;55.932;2023-04-06T02:43:38;31.42;;;8.55;;
78931;SDS011;68331;53.362;55.932;2023-04-06T02:46:17;47.30;;;9.85;;
78931;SDS011;68331;53.362;55.932;2023-04-06T02:48:43;35.97;;;9.13;;
78931;SDS011;68331;53.362;55.932;2023-04-06T02:51:09;37.92;;;9.60;;
78931;SDS011;68331;53.362;55.932;2023-04-06T02:53:36;40.80;;;9.60;;
78931;SDS011;68331;53.362;55.932;2023-04-06T02:56:02;37.20;;;9.15;;
78931;SDS011;68331;53.362;55.932;2023-04-06T02:58:39;39.85;;;9.13;;
78931;SDS011;68331;53.362;55.932;2023-04-06T03:01:05;37.28;;;9.30;;
78931;SDS011;68331;53.362;55.932;2023-04-06T03:03:31;41.67;;;10.35;;
78931;SDS011;68331;53.362;55.932;2023-04-06T03:05:58;33.35;;;8.98;;
78931;SDS011;68331;53.362;55.932;2023-04-06T03:08:28;48.38;;;11.50;;
78931;SDS011;68331;53.362;55.932;2023-04-06T03:10:54;45.63;;;9.18;;
78931;SDS011;68331;53.362;55.932;2023-04-06T03:13:25;41.70;;;8.35;;
78931;SDS011;68331;53.362;55.932;2023-04-06T03:15:55;28.40;;;7.95;;
78931;SDS011;68331;53.362;55.932;2023-04-06T03:18:21;41.15;;;10.15;;
78931;SDS011;68331;53.362;55.932;2023-04-06T03:20:50;39.30;;;8.43;;
78931;SDS011;68331;53.362;55.932;2023-04-06T03:23:18;67.28;;;12.68;;
78931;SDS011;68331;53.362;55.932;2023-04-06T03:25:49;64.32;;;12.10;;
78931;SDS011;68331;53.362;55.932;2023-04-06T03:28:18;33.65;;;7.55;;
78931;SDS011;68331;53.362;55.932;2023-04-06T03:30:52;26.67;;;7.28;;
78931;SDS011;68331;53.362;55.932;2023-04-06T03:33:29;24.67;;;7.00;;
78931;SDS011;68331;53.362;55.932;2023-04-06T03:35:56;33.15;;;6.95;;
78931;SDS011;68331;53.362;55.932;2023-04-06T03:38:24;36.72;;;8.90;;
78931;SDS011;68331;53.362;55.932;2023-04-06T03:40:50;26.45;;;5.78;;
78931;SDS011;68331;53.362;55.932;2023-04-06T03:43:20;29.80;;;6.95;;
78931;SDS011;68331;53.362;55.932;2023-04-06T03:45:46;26.95;;;6.75;;
78931;SDS011;68331;53.362;55.932;2023-04-06T03:48:13;24.65;;;7.40;;
78931;SDS011;68331;53.362;55.932;2023-04-06T03:50:39;19.45;;;6.45;;
78931;SDS011;68331;53.362;55.932;2023-04-06T03:53:05;31.88;;;8.38;;
78931;SDS011;68331;53.362;55.932;2023-04-06T03:55:31;23.38;;;5.85;;
78931;SDS011;68331;53.362;55.932;2023-04-06T03:57:57;21.52;;;7.30;;
78931;SDS011;68331;53.362;55.932;2023-04-06T04:00:24;24.15;;;7.40;;
78931;SDS011;68331;53.362;55.932;2023-04-06T04:02:50;31.13;;;8.35;;
78931;SDS011;68331;53.362;55.932;2023-04-06T04:05:16;20.73;;;7.40;;
78931;SDS011;68331;53.362;55.932;2023-04-06T04:07:42;41.17;;;7.47;;
78931;SDS011;68331;53.362;55.932;2023-04-06T04:10:09;29.30;;;8.48;;
78931;SDS011;68331;53.362;55.932;2023-04-06T04:12:35;28.13;;;8.55;;
78931;SDS011;68331;53.362;55.932;2023-04-06T04:15:01;27.60;;;8.30;;
78931;SDS011;68331;53.362;55.932;2023-04-06T04:17:28;33.75;;;10.52;;
78931;SDS011;68331;53.362;55.932;2023-04-06T04:19:54;23.25;;;7.68;;
78931;SDS011;68331;53.362;55.932;2023-04-06T04:22:20;27.77;;;8.73;;
78931;SDS011;68331;53.362;55.932;2023-04-06T04:24:46;21.83;;;7.78;;
78931;SDS011;68331;53.362;55.932;2023-04-06T04:27:13;26.65;;;9.38;;
78931;SDS011;68331;53.362;55.932;2023-04-06T04:29:39;29.17;;;8.27;;
78931;SDS011;68331;53.362;55.932;2023-04-06T04:32:08;29.17;;;10.02;;
78931;SDS011;68331;53.362;55.932;2023-04-06T04:34:35;23.80;;;8.23;;
78931;SDS011;68331;53.362;55.932;2023-04-06T04:37:03;29.95;;;7.13;;
78931;SDS011;68331;53.362;55.932;2023-04-06T04:39:46;33.25;;;9.05;;
78931;SDS011;68331;53.362;55.932;2023-04-06T04:42:13;30.40;;;8.25;;
78931;SDS011;68331;53.362;55.932;2023-04-06T04:44:45;32.22;;;8.40;;
78931;SDS011;68331;53.362;55.932;2023-04-06T04:47:13;30.10;;;7.63;;
78931;SDS011;68331;53.362;55.932;2023-04-06T04:49:43;28.85;;;7.28;;
78931;SDS011;68331;53.362;55.932;2023-04-06T04:52:13;26.42;;;7.55;;
78931;SDS011;68331;53.362;55.932;2023-04-06T04:55:02;28.30;;;7.40;;
78931;SDS011;68331;53.362;55.932;2023-04-06T04:57:29;28.98;;;8.13;;
78931;SDS011;68331;53.362;55.932;2023-04-06T04:59:56;29.20;;;7.68;;
78931;SDS011;68331;53.362;55.932;2023-04-06T05:02:23;35.15;;;8.35;;
78931;SDS011;68331;53.362;55.932;2023-04-06T05:05:02;36.55;;;8.15;;
78931;SDS011;68331;53.362;55.932;2023-04-06T05:07:29;40.42;;;9.32;;
78931;SDS011;68331;53.362;55.932;2023-04-06T05:09:57;28.45;;;7.10;;
78931;SDS011;68331;53.362;55.932;2023-04-06T05:12:28;32.83;;;7.07;;
78931;SDS011;68331;53.362;55.932;2023-04-06T05:17:51;33.65;;;8.05;;
78931;SDS011;68331;53.362;55.932;2023-04-06T05:20:22;21.10;;;6.90;;
78931;SDS011;68331;53.362;55.932;2023-04-06T05:22:50;23.23;;;7.32;;
78931;SDS011;68331;53.362;55.932;2023-04-06T05:25:16;24.23;;;8.27;;
78931;SDS011;68331;53.362;55.932;2023-04-06T05:27:44;24.15;;;7.38;;
78931;SDS011;68331;53.362;55.932;2023-04-06T05:30:27;26.98;;;8.05;;
78931;SDS011;68331;53.362;55.932;2023-04-06T05:32:54;31.58;;;8.45;;
78931;SDS011;68331;53.362;55.932;2023-04-06T05:35:22;23.02;;;6.82;;
78931;SDS011;68331;53.362;55.932;2023-04-06T05:37:53;38.90;;;10.23;;
78931;SDS011;68331;53.362;55.932;2023-04-06T05:40:23;30.23;;;8.10;;
78931;SDS011;68331;53.362;55.932;2023-04-06T05:42:49;24.38;;;8.68;;
78931;SDS011;68331;53.362;55.932;2023-04-06T05:45:16;40.78;;;9.98;;
78931;SDS011;68331;53.362;55.932;2023-04-06T05:47:49;59.65;;;13.90;;
78931;SDS011;68331;53.362;55.932;2023-04-06T05:50:26;47.47;;;9.38;;
78931;SDS011;68331;53.362;55.932;2023-04-06T05:52:52;28.27;;;8.82;;
78931;SDS011;68331;53.362;55.932;2023-04-06T05:55:21;27.90;;;9.25;;
78931;SDS011;68331;53.362;55.932;2023-04-06T05:57:54;42.15;;;14.73;;
78931;SDS011;68331;53.362;55.932;2023-04-06T06:00:20;47.80;;;17.45;;
78931;SDS011;68331;53.362;55.932;2023-04-06T06:02:57;42.33;;;16.02;;
78931;SDS011;68331;53.362;55.932;2023-04-06T06:05:28;37.55;;;17.27;;
78931;SDS011;68331;53.362;55.932;2023-04-06T06:07:57;48.53;;;16.45;;
78931;SDS011;68331;53.362;55.932;2023-04-06T06:10:22;44.92;;;16.02;;
78931;SDS011;68331;53.362;55.932;2023-04-06T06:12:49;48.72;;;18.02;;
78931;SDS011;68331;53.362;55.932;2023-04-06T06:15:16;54.72;;;20.90;;
78931;SDS011;68331;53.362;55.932;2023-04-06T06:17:45;51.70;;;15.75;;
78931;SDS011;68331;53.362;55.932;2023-04-06T06:20:11;41.03;;;18.00;;
78931;SDS011;68331;53.362;55.932;2023-04-06T06:22:38;56.50;;;18.33;;
78931;SDS011;68331;53.362;55.932;2023-04-06T06:25:09;48.47;;;19.38;;
78931;SDS011;68331;53.362;55.932;2023-04-06T06:27:35;65.57;;;21.13;;
78931;SDS011;68331;53.362;55.932;2023-04-06T06:30:02;41.08;;;15.70;;
78931;SDS011;68331;53.362;55.932;2023-04-06T06:32:30;43.38;;;11.98;;
78931;SDS011;68331;53.362;55.932;2023-04-06T06:34:59;44.60;;;17.75;;
78931;SDS011;68331;53.362;55.932;2023-04-06T06:37:27;73.47;;;22.92;;
78931;SDS011;68331;53.362;55.932;2023-04-06T06:39:53;56.15;;;20.95;;
78931;SDS011;68331;53.362;55.932;2023-04-06T06:42:20;63.88;;;20.23;;
78931;SDS011;68331;53.362;55.932;2023-04-06T06:45:06;41.38;;;18.13;;
78931;SDS011;68331;53.362;55.932;2023-04-06T06:47:33;67.32;;;17.88;;
78931;SDS011;68331;53.362;55.932;2023-04-06T06:49:59;42.17;;;15.98;;
78931;SDS011;68331;53.362;55.932;2023-04-06T06:52:25;36.45;;;13.85;;
78931;SDS011;68331;53.362;55.932;2023-04-06T06:54:51;43.53;;;13.88;;
78931;SDS011;68331;53.362;55.932;2023-04-06T06:57:18;33.00;;;13.05;;
78931;SDS011;68331;53.362;55.932;2023-04-06T06:59:45;41.90;;;17.42;;
78931;SDS011;68331;53.362;55.932;2023-04-06T07:02:12;59.42;;;20.23;;
78931;SDS011;68331;53.362;55.932;2023-04-06T07:04:38;54.40;;;22.60;;
78931;SDS011;68331;53.362;55.932;2023-04-06T07:07:04;49.72;;;21.10;;
78931;SDS011;68331;53.362;55.932;2023-04-06T07:09:29;55.65;;;22.52;;
78931;SDS011;68331;53.362;55.932;2023-04-06T07:11:56;50.10;;;18.58;;
78931;SDS011;68331;53.362;55.932;2023-04-06T07:14:22;44.28;;;13.95;;
78931;SDS011;68331;53.362;55.932;2023-04-06T07:16:48;50.05;;;9.75;;
78931;SDS011;68331;53.362;55.932;2023-04-06T07:19:15;57.30;;;9.63;;
78931;SDS011;68331;53.362;55.932;2023-04-06T07:21:41;46.17;;;13.45;;
78931;SDS011;68331;53.362;55.932;2023-04-06T07:24:07;51.90;;;16.55;;
78931;SDS011;68331;53.362;55.932;2023-04-06T07:26:33;45.05;;;16.08;;
78931;SDS011;68331;53.362;55.932;2023-04-06T07:28:59;49.78;;;17.08;;
78931;SDS011;68331;53.362;55.932;2023-04-06T07:33:52;57.97;;;16.77;;
78931;SDS011;68331;53.362;55.932;2023-04-06T07:36:18;42.30;;;15.32;;
78931;SDS011;68331;53.362;55.932;2023-04-06T07:38:45;42.70;;;14.75;;
78931;SDS011;68331;53.362;55.932;2023-04-06T07:41:12;44.72;;;12.65;;
78931;SDS011;68331;53.362;55.932;2023-04-06T07:43:38;38.17;;;12.63;;
78931;SDS011;68331;53.362;55.932;2023-04-06T07:46:05;35.13;;;12.80;;
78931;SDS011;68331;53.362;55.932;2023-04-06T07:48:31;32.80;;;13.18;;
78931;SDS011;68331;53.362;55.932;2023-04-06T07:51:01;38.20;;;10.00;;
78931;SDS011;68331;53.362;55.932;2023-04-06T07:53:28;29.58;;;9.77;;
78931;SDS011;68331;53.362;55.932;2023-04-06T07:55:54;33.58;;;9.57;;
78931;SDS011;68331;53.362;55.932;2023-04-06T07:58:21;29.50;;;8.50;;
78931;SDS011;68331;53.362;55.932;2023-04-06T08:00:47;44.90;;;10.55;;
78931;SDS011;68331;53.362;55.932;2023-04-06T08:03:12;50.83;;;8.25;;
78931;SDS011;68331;53.362;55.932;2023-04-06T08:05:38;24.42;;;5.95;;
78931;SDS011;68331;53.362;55.932;2023-04-06T08:08:04;23.45;;;5.35;;
78931;SDS011;68331;53.362;55.932;2023-04-06T08:10:30;22.10;;;6.35;;
78931;SDS011;68331;53.362;55.932;2023-04-06T08:12:56;24.10;;;5.18;;
78931;SDS011;68331;53.362;55.932;2023-04-06T08:15:22;24.67;;;5.07;;
78931;SDS011;68331;53.362;55.932;2023-04-06T08:17:48;23.92;;;5.35;;
78931;SDS011;68331;53.362;55.932;2023-04-06T08:20:14;22.17;;;4.72;;
78931;SDS011;68331;53.362;55.932;2023-04-06T08:22:40;29.92;;;5.40;;
78931;SDS011;68331;53.362;55.932;2023-04-06T08:25:06;26.27;;;5.30;;
78931;SDS011;68331;53.362;55.932;2023-04-06T08:27:32;27.75;;;6.13;;
78931;SDS011;68331;53.362;55.932;2023-04-06T08:29:58;20.50;;;5.32;;
78931;SDS011;68331;53.362;55.932;2023-04-06T08:32:24;30.90;;;6.05;;
78931;SDS011;68331;53.362;55.932;2023-04-06T08:34:53;22.85;;;5.00;;
78931;SDS011;68331;53.362;55.932;2023-04-06T08:37:20;16.65;;;4.20;;
78931;SDS011;68331;53.362;55.932;2023-04-06T08:42:16;16.60;;;5.40;;
78931;SDS011;68331;53.362;55.932;2023-04-06T08:44:44;17.92;;;3.70;;
78931;SDS011;68331;53.362;55.932;2023-04-06T08:47:11;16.08;;;3.70;;
78931;SDS011;68331;53.362;55.932;2023-04-06T08:49:38;14.52;;;3.67;;
78931;SDS011;68331;53.362;55.932;2023-04-06T08:52:07;12.80;;;3.38;;
78931;SDS011;68331;53.362;55.932;2023-04-06T08:54:33;14.48;;;3.58;;
78931;SDS011;68331;53.362;55.932;2023-04-06T08:57:00;21.20;;;4.32;;
78931;SDS011;68331;53.362;55.932;2023-04-06T08:59:28;12.73;;;3.92;;
78931;SDS011;68331;53.362;55.932;2023-04-06T09:01:54;20.15;;;4.28;;
78931;SDS011;68331;53.362;55.932;2023-04-06T09:04:21;35.17;;;4.90;;
78931;SDS011;68331;53.362;55.932;2023-04-06T09:06:47;13.90;;;3.83;;
78931;SDS011;68331;53.362;55.932;2023-04-06T09:09:13;17.00;;;3.42;;
78931;SDS011;68331;53.362;55.932;2023-04-06T09:11:42;22.02;;;4.53;;
78931;SDS011;68331;53.362;55.932;2023-04-06T09:14:13;19.98;;;5.32;;
78931;SDS011;68331;53.362;55.932;2023-04-06T09:16:41;17.30;;;3.47;;
78931;SDS011;68331;53.362;55.932;2023-04-06T09:19:08;32.20;;;3.95;;
78931;SDS011;68331;53.362;55.932;2023-04-06T09:21:35;46.47;;;6.03;;
78931;SDS011;68331;53.362;55.932;2023-04-06T09:24:02;18.85;;;4.18;;
78931;SDS011;68331;53.362;55.932;2023-04-06T09:28:58;11.68;;;3.42;;
78931;SDS011;68331;53.362;55.932;2023-04-06T09:33:53;8.65;;;2.80;;
78931;SDS011;68331;53.362;55.932;2023-04-06T09:36:20;17.85;;;4.05;;
78931;SDS011;68331;53.362;55.932;2023-04-06T09:38:56;12.60;;;3.42;;
78931;SDS011;68331;53.362;55.932;2023-04-06T09:41:31;10.55;;;2.95;;
78931;SDS011;68331;53.362;55.932;2023-04-06T09:44:01;11.73;;;3.85;;
78931;SDS011;68331;53.362;55.932;2023-04-06T09:46:30;8.50;;;3.53;;
78931;SDS011;68331;53.362;55.932;2023-04-06T09:48:58;21.08;;;4.18;;
78931;SDS011;68331;53.362;55.932;2023-04-06T09:51:27;14.10;;;4.03;;
78931;SDS011;68331;53.362;55.932;2023-04-06T09:53:57;12.77;;;3.78;;
78931;SDS011;68331;53.362;55.932;2023-04-06T09:56:31;14.73;;;4.45;;
78931;SDS011;68331;53.362;55.932;2023-04-06T09:59:05;11.77;;;4.45;;
78931;SDS011;68331;53.362;55.932;2023-04-06T10:01:38;12.63;;;5.57;;
78931;SDS011;68331;53.362;55.932;2023-04-06T10:04:10;21.40;;;6.75;;
78931;SDS011;68331;53.362;55.932;2023-04-06T10:06:45;16.25;;;6.13;;
78931;SDS011;68331;53.362;55.932;2023-04-06T10:09:17;17.75;;;7.07;;
78931;SDS011;68331;53.362;55.932;2023-04-06T10:11:44;14.52;;;6.88;;
78931;SDS011;68331;53.362;55.932;2023-04-06T10:14:11;16.85;;;9.05;;
78931;SDS011;68331;53.362;55.932;2023-04-06T10:16:38;19.10;;;9.82;;
78931;SDS011;68331;53.362;55.932;2023-04-06T10:19:12;17.00;;;9.65;;
78931;SDS011;68331;53.362;55.932;2023-04-06T10:21:42;23.15;;;11.93;;
78931;SDS011;68331;53.362;55.932;2023-04-06T10:24:14;27.05;;;12.18;;
78931;SDS011;68331;53.362;55.932;2023-04-06T10:26:40;25.77;;;13.63;;
78931;SDS011;68331;53.362;55.932;2023-04-06T10:29:06;23.77;;;11.85;;
78931;SDS011;68331;53.362;55.932;2023-04-06T10:31:32;26.17;;;13.45;;
78931;SDS011;68331;53.362;55.932;2023-04-06T10:34:01;27.23;;;11.75;;
78931;SDS011;68331;53.362;55.932;2023-04-06T10:36:31;18.80;;;8.77;;
78931;SDS011;68331;53.362;55.932;2023-04-06T10:38:59;19.55;;;8.82;;
78931;SDS011;68331;53.362;55.932;2023-04-06T10:41:34;31.60;;;8.52;;
78931;SDS011;68331;53.362;55.932;2023-04-06T10:44:08;16.05;;;6.95;;
78931;SDS011;68331;53.362;55.932;2023-04-06T10:46:51;17.83;;;6.38;;
78931;SDS011;68331;53.362;55.932;2023-04-06T10:49:28;18.75;;;5.95;;
78931;SDS011;68331;53.362;55.932;2023-04-06T10:51:54;10.98;;;4.95;;
78931;SDS011;68331;53.362;55.932;2023-04-06T10:54:22;8.80;;;4.28;;
78931;SDS011;68331;53.362;55.932;2023-04-06T10:56:50;9.90;;;3.88;;
78931;SDS011;68331;53.362;55.932;2023-04-06T10:59:19;17.15;;;4.70;;
78931;SDS011;68331;53.362;55.932;2023-04-06T11:01:47;14.98;;;4.28;;
78931;SDS011;68331;53.362;55.932;2023-04-06T11:04:15;9.63;;;4.18;;
78931;SDS011;68331;53.362;55.932;2023-04-06T11:06:46;9.52;;;4.28;;
78931;SDS011;68331;53.362;55.932;2023-04-06T11:09:26;7.68;;;3.83;;
78931;SDS011;68331;53.362;55.932;2023-04-06T11:11:53;9.60;;;4.13;;
78931;SDS011;68331;53.362;55.932;2023-04-06T11:14:21;7.25;;;4.13;;
78931;SDS011;68331;53.362;55.932;2023-04-06T11:16:47;14.15;;;4.22;;
78931;SDS011;68331;53.362;55.932;2023-04-06T11:19:15;9.57;;;4.32;;
78931;SDS011;68331;53.362;55.932;2023-04-06T11:26:39;12.88;;;5.22;;
78931;SDS011;68331;53.362;55.932;2023-04-06T11:29:09;14.05;;;4.60;;
78931;SDS011;68331;53.362;55.932;2023-04-06T11:31:40;10.50;;;4.45;;
78931;SDS011;68331;53.362;55.932;2023-04-06T11:34:15;12.82;;;4.93;;
78931;SDS011;68331;53.362;55.932;2023-04-06T11:36:44;13.63;;;5.85;;
78931;SDS011;68331;53.362;55.932;2023-04-06T11:39:11;10.00;;;5.78;;
78931;SDS011;68331;53.362;55.932;2023-04-06T11:41:38;27.00;;;7.22;;
78931;SDS011;68331;53.362;55.932;2023-04-06T11:44:05;17.08;;;6.00;;
78931;SDS011;68331;53.362;55.932;2023-04-06T11:46:31;16.45;;;6.45;;
78931;SDS011;68331;53.362;55.932;2023-04-06T11:48:58;12.15;;;5.95;;
78931;SDS011;68331;53.362;55.932;2023-04-06T11:51:25;17.38;;;5.88;;
78931;SDS011;68331;53.362;55.932;2023-04-06T11:53:52;12.27;;;5.65;;
78931;SDS011;68331;53.362;55.932;2023-04-06T11:56:25;23.30;;;6.30;;
78931;SDS011;68331;53.362;55.932;2023-04-06T11:58:54;8.20;;;4.88;;
78931;SDS011;68331;53.362;55.932;2023-04-06T12:01:25;15.38;;;5.20;;
78931;SDS011;68331;53.362;55.932;2023-04-06T12:03:51;12.90;;;5.05;;
78931;SDS011;68331;53.362;55.932;2023-04-06T12:06:18;9.60;;;5.07;;
78931;SDS011;68331;53.362;55.932;2023-04-06T12:08:44;13.35;;;5.53;;
78931;SDS011;68331;53.362;55.932;2023-04-06T12:11:21;7.80;;;4.50;;
78931;SDS011;68331;53.362;55.932;2023-04-06T12:13:47;10.35;;;5.53;;
78931;SDS011;68331;53.362;55.932;2023-04-06T12:16:14;15.85;;;5.90;;
78931;SDS011;68331;53.362;55.932;2023-04-06T12:18:40;9.73;;;4.63;;
78931;SDS011;68331;53.362;55.932;2023-04-06T12:21:06;13.82;;;4.50;;
78931;SDS011;68331;53.362;55.932;2023-04-06T12:23:32;18.33;;;6.93;;
78931;SDS011;68331;53.362;55.932;2023-04-06T12:25:58;18.55;;;7.47;;
78931;SDS011;68331;53.362;55.932;2023-04-06T12:28:23;16.13;;;6.68;;
78931;SDS011;68331;53.362;55.932;2023-04-06T12:30:52;15.45;;;6.97;;
78931;SDS011;68331;53.362;55.932;2023-04-06T12:33:19;19.23;;;7.40;;
78931;SDS011;68331;53.362;55.932;2023-04-06T12:35:45;16.88;;;6.32;;
78931;SDS011;68331;53.362;55.932;2023-04-06T12:38:11;10.27;;;4.53;;
78931;SDS011;68331;53.362;55.932;2023-04-06T12:40:37;23.30;;;5.40;;
78931;SDS011;68331;53.362;55.932;2023-04-06T12:43:04;14.70;;;5.10;;
78931;SDS011;68331;53.362;55.932;2023-04-06T12:45:30;13.23;;;4.50;;
78931;SDS011;68331;53.362;55.932;2023-04-06T12:47:57;9.70;;;4.60;;
78931;SDS011;68331;53.362;55.932;2023-04-06T12:50:23;18.73;;;4.95;;
78931;SDS011;68331;53.362;55.932;2023-04-06T12:52:50;10.05;;;4.32;;
78931;SDS011;68331;53.362;55.932;2023-04-06T12:55:16;14.25;;;4.97;;
78931;SDS011;68331;53.362;55.932;2023-04-06T12:57:42;17.65;;;5.13;;
78931;SDS011;68331;53.362;55.932;2023-04-06T13:00:08;9.85;;;3.80;;
78931;SDS011;68331;53.362;55.932;2023-04-06T13:02:34;10.48;;;4.22;;
78931;SDS011;68331;53.362;55.932;2023-04-06T13:05:00;9.10;;;4.38;;
78931;SDS011;68331;53.362;55.932;2023-04-06T13:07:28;13.52;;;3.90;;
78931;SDS011;68331;53.362;55.932;2023-04-06T13:09:54;9.32;;;3.95;;
78931;SDS011;68331;53.362;55.932;2023-04-06T13:12:20;17.67;;;4.78;;
78931;SDS011;68331;53.362;55.932;2023-04-06T13:14:46;8.80;;;3.38;;
78931;SDS011;68331;53.362;55.932;2023-04-06T13:17:17;14.82;;;4.32;;
78931;SDS011;68331;53.362;55.932;2023-04-06T13:19:43;15.90;;;4.10;;
78931;SDS011;68331;53.362;55.932;2023-04-06T13:22:09;21.33;;;4.30;;
78931;SDS011;68331;53.362;55.932;2023-04-06T13:24:35;12.82;;;4.05;;
78931;SDS011;68331;53.362;55.932;2023-04-06T13:27:01;12.98;;;3.90;;
78931;SDS011;68331;53.362;55.932;2023-04-06T13:29:28;26.55;;;4.80;;
78931;SDS011;68331;53.362;55.932;2023-04-06T13:31:54;8.15;;;3.53;;
78931;SDS011;68331;53.362;55.932;2023-04-06T13:34:20;14.50;;;4.15;;
78931;SDS011;68331;53.362;55.932;2023-04-06T13:36:47;11.80;;;3.90;;
78931;SDS011;68331;53.362;55.932;2023-04-06T13:39:13;13.50;;;3.72;;
78931;SDS011;68331;53.362;55.932;2023-04-06T13:41:39;10.60;;;4.10;;
78931;SDS011;68331;53.362;55.932;2023-04-06T13:44:06;13.57;;;3.75;;
78931;SDS011;68331;53.362;55.932;2023-04-06T13:46:32;14.77;;;4.38;;
78931;SDS011;68331;53.362;55.932;2023-04-06T13:48:58;13.50;;;3.90;;
78931;SDS011;68331;53.362;55.932;2023-04-06T13:51:24;11.63;;;4.03;;
78931;SDS011;68331;53.362;55.932;2023-04-06T13:53:52;20.30;;;4.82;;
78931;SDS011;68331;53.362;55.932;2023-04-06T13:56:19;13.10;;;4.72;;
78931;SDS011;68331;53.362;55.932;2023-04-06T13:58:45;21.88;;;5.53;;
78931;SDS011;68331;53.362;55.932;2023-04-06T14:01:11;22.50;;;5.80;;
78931;SDS011;68331;53.362;55.932;2023-04-06T14:03:37;21.55;;;5.32;;
78931;SDS011;68331;53.362;55.932;2023-04-06T14:06:13;14.30;;;4.80;;
78931;SDS011;68331;53.362;55.932;2023-04-06T14:08:40;18.42;;;5.18;;
78931;SDS011;68331;53.362;55.932;2023-04-06T14:11:06;21.42;;;5.35;;
78931;SDS011;68331;53.362;55.932;2023-04-06T14:13:37;28.10;;;6.13;;
78931;SDS011;68331;53.362;55.932;2023-04-06T14:16:04;37.38;;;6.10;;
78931;SDS011;68331;53.362;55.932;2023-04-06T14:18:32;14.07;;;5.15;;
78931;SDS011;68331;53.362;55.932;2023-04-06T14:21:02;17.05;;;4.90;;
78931;SDS011;68331;53.362;55.932;2023-04-06T14:23:33;14.45;;;4.55;;
78931;SDS011;68331;53.362;55.932;2023-04-06T14:26:06;16.35;;;5.18;;
78931;SDS011;68331;53.362;55.932;2023-04-06T14:28:34;17.73;;;5.15;;
78931;SDS011;68331;53.362;55.932;2023-04-06T14:31:01;14.65;;;4.43;;
78931;SDS011;68331;53.362;55.932;2023-04-06T14:33:36;17.80;;;6.00;;
78931;SDS011;68331;53.362;55.932;2023-04-06T14:36:04;17.20;;;5.50;;
78931;SDS011;68331;53.362;55.932;2023-04-06T14:38:32;20.63;;;5.40;;
78931;SDS011;68331;53.362;55.932;2023-04-06T14:41:01;19.92;;;5.22;;
78931;SDS011;68331;53.362;55.932;2023-04-06T14:43:27;14.38;;;4.60;;
78931;SDS011;68331;53.362;55.932;2023-04-06T14:45:53;13.00;;;5.22;;